Happy Valley, Texas
Current Conditions -  °F | °C
As of 9:58 AM on Sunday 25 Jan 2015 (Local Time) from KDYS Reporting Station
Clear Clear  
Wind Chill: 51°   Ceiling: Unl
Heat Index: 51°   Visibility: 10mi
Dew Point: 33°   Wind: 14mph
Humidity: 51%   Direction: 340°NNW
Pressure: 30.16"   Gusts: NA
Location:  32.0181°N, 100.153°W
Report Text: KDYS 251558Z AUTO 34012KT 10SM CLR 10/01 A3016 RMK AO2 SLP211 T01040007 $
Loading
Personal Weather Stations






























Interactive Weather Map New forecast layout! Learn more

10-Day Weather Forecast

Advertisements
Track Severe Weather on mobile